sensor_id;sensor_type;location;lat;lon;timestamp;pressure;altitude;pressure_sealevel;temperature;humidity
50710;BME280;37033;49.994;21.992;2023-10-09T00:00:16;100147.40;;;3.34;71.86
50710;BME280;37033;49.994;21.992;2023-10-09T00:03:21;100146.57;;;3.26;72.04
50710;BME280;37033;49.994;21.992;2023-10-09T00:05:53;100141.06;;;3.18;71.97
50710;BME280;37033;49.994;21.992;2023-10-09T00:08:25;100137.52;;;3.09;71.93
50710;BME280;37033;49.994;21.992;2023-10-09T00:11:01;100130.65;;;3.00;72.11
50710;BME280;37033;49.994;21.992;2023-10-09T00:13:47;100132.73;;;2.91;72.20
50710;BME280;37033;49.994;21.992;2023-10-09T00:16:23;100136.66;;;2.83;72.35
50710;BME280;37033;49.994;21.992;2023-10-09T00:19:02;100139.70;;;2.77;72.43
50710;BME280;37033;49.994;21.992;2023-10-09T00:21:44;100148.29;;;2.68;72.47
50710;BME280;37033;49.994;21.992;2023-10-09T00:24:15;100152.48;;;2.61;72.78
50710;BME280;37033;49.994;21.992;2023-10-09T00:26:53;100155.53;;;2.51;72.87
50710;BME280;37033;49.994;21.992;2023-10-09T00:29:26;100148.97;;;2.44;73.08
50710;BME280;37033;49.994;21.992;2023-10-09T00:32:04;100148.34;;;2.36;73.56
50710;BME280;37033;49.994;21.992;2023-10-09T00:34:42;100147.04;;;2.26;73.75
50710;BME280;37033;49.994;21.992;2023-10-09T00:37:13;100144.29;;;2.16;74.12
50710;BME280;37033;49.994;21.992;2023-10-09T00:39:46;100141.32;;;2.06;74.47
50710;BME280;37033;49.994;21.992;2023-10-09T00:42:18;100144.39;;;2.01;74.30
50710;BME280;37033;49.994;21.992;2023-10-09T00:44:57;100150.86;;;1.99;74.73
50710;BME280;37033;49.994;21.992;2023-10-09T00:47:33;100151.93;;;1.94;74.72
50710;BME280;37033;49.994;21.992;2023-10-09T00:50:07;100147.57;;;1.89;74.98
50710;BME280;37033;49.994;21.992;2023-10-09T00:52:46;100144.26;;;1.87;74.97
50710;BME280;37033;49.994;21.992;2023-10-09T00:55:22;100138.66;;;1.86;74.99
50710;BME280;37033;49.994;21.992;2023-10-09T00:58:06;100134.67;;;1.85;75.33
50710;BME280;37033;49.994;21.992;2023-10-09T01:00:42;100139.62;;;1.82;75.34
50710;BME280;37033;49.994;21.992;2023-10-09T01:03:18;100139.55;;;1.83;75.24
50710;BME280;37033;49.994;21.992;2023-10-09T01:05:58;100143.80;;;1.82;75.46
50710;BME280;37033;49.994;21.992;2023-10-09T01:08:45;100149.70;;;1.75;75.39
50710;BME280;37033;49.994;21.992;2023-10-09T01:11:24;100148.52;;;1.70;75.37
50710;BME280;37033;49.994;21.992;2023-10-09T01:13:59;100145.40;;;1.68;75.56
50710;BME280;37033;49.994;21.992;2023-10-09T01:16:41;100136.39;;;1.65;75.79
50710;BME280;37033;49.994;21.992;2023-10-09T01:19:13;100122.36;;;1.63;75.75
50710;BME280;37033;49.994;21.992;2023-10-09T01:21:49;100120.07;;;1.61;75.76
50710;BME280;37033;49.994;21.992;2023-10-09T01:24:21;100123.41;;;1.60;76.14
50710;BME280;37033;49.994;21.992;2023-10-09T01:26:56;100133.49;;;1.59;76.08
50710;BME280;37033;49.994;21.992;2023-10-09T01:29:28;100140.20;;;1.60;76.15
50710;BME280;37033;49.994;21.992;2023-10-09T01:31:59;100147.27;;;1.61;76.28
50710;BME280;37033;49.994;21.992;2023-10-09T01:34:34;100148.27;;;1.61;76.14
50710;BME280;37033;49.994;21.992;2023-10-09T01:37:14;100137.02;;;1.60;75.98
50710;BME280;37033;49.994;21.992;2023-10-09T01:39:48;100137.58;;;1.56;76.21
50710;BME280;37033;49.994;21.992;2023-10-09T01:42:21;100132.68;;;1.52;76.51
50710;BME280;37033;49.994;21.992;2023-10-09T01:45:04;100128.76;;;1.48;76.52
50710;BME280;37033;49.994;21.992;2023-10-09T01:47:56;100125.46;;;1.46;76.68
50710;BME280;37033;49.994;21.992;2023-10-09T01:50:27;100120.50;;;1.44;76.52
50710;BME280;37033;49.994;21.992;2023-10-09T01:53:00;100119.73;;;1.41;76.75
50710;BME280;37033;49.994;21.992;2023-10-09T01:55:32;100119.69;;;1.40;76.71
50710;BME280;37033;49.994;21.992;2023-10-09T01:58:08;100113.36;;;1.37;76.80
50710;BME280;37033;49.994;21.992;2023-10-09T02:00:46;100106.72;;;1.34;76.90
50710;BME280;37033;49.994;21.992;2023-10-09T02:03:20;100101.15;;;1.32;77.13
50710;BME280;37033;49.994;21.992;2023-10-09T02:05:54;100100.36;;;1.30;77.26
50710;BME280;37033;49.994;21.992;2023-10-09T02:08:34;100096.93;;;1.27;77.48
50710;BME280;37033;49.994;21.992;2023-10-09T02:11:06;100094.35;;;1.24;77.33
50710;BME280;37033;49.994;21.992;2023-10-09T02:13:43;100095.72;;;1.23;77.34
50710;BME280;37033;49.994;21.992;2023-10-09T02:16:23;100089.63;;;1.24;77.65
50710;BME280;37033;49.994;21.992;2023-10-09T02:18:58;100083.50;;;1.24;77.66
50710;BME280;37033;49.994;21.992;2023-10-09T02:21:29;100079.58;;;1.26;77.82
50710;BME280;37033;49.994;21.992;2023-10-09T02:24:04;100081.46;;;1.26;77.92
50710;BME280;37033;49.994;21.992;2023-10-09T02:26:38;100083.80;;;1.26;77.98
50710;BME280;37033;49.994;21.992;2023-10-09T02:29:36;100081.54;;;1.27;78.21
50710;BME280;37033;49.994;21.992;2023-10-09T02:32:11;100076.77;;;1.27;78.23
50710;BME280;37033;49.994;21.992;2023-10-09T02:34:54;100074.40;;;1.27;78.67
50710;BME280;37033;49.994;21.992;2023-10-09T02:37:32;100063.65;;;1.26;78.86
50710;BME280;37033;49.994;21.992;2023-10-09T02:40:09;100066.46;;;1.25;78.63
50710;BME280;37033;49.994;21.992;2023-10-09T02:42:45;100072.35;;;1.25;78.58
50710;BME280;37033;49.994;21.992;2023-10-09T02:45:15;100072.17;;;1.25;78.58
50710;BME280;37033;49.994;21.992;2023-10-09T02:47:47;100071.72;;;1.26;78.68
50710;BME280;37033;49.994;21.992;2023-10-09T02:50:18;100064.33;;;1.28;78.67
50710;BME280;37033;49.994;21.992;2023-10-09T02:52:51;100059.55;;;1.29;78.77
50710;BME280;37033;49.994;21.992;2023-10-09T02:55:28;100060.50;;;1.29;78.90
50710;BME280;37033;49.994;21.992;2023-10-09T02:57:59;100060.64;;;1.29;78.78
50710;BME280;37033;49.994;21.992;2023-10-09T03:00:37;100061.89;;;1.29;78.87
50710;BME280;37033;49.994;21.992;2023-10-09T03:03:08;100057.66;;;1.28;79.14
50710;BME280;37033;49.994;21.992;2023-10-09T03:05:39;100059.66;;;1.28;79.15
50710;BME280;37033;49.994;21.992;2023-10-09T03:08:11;100059.13;;;1.26;79.18
50710;BME280;37033;49.994;21.992;2023-10-09T03:10:42;100064.82;;;1.25;79.39
50710;BME280;37033;49.994;21.992;2023-10-09T03:13:13;100073.48;;;1.24;79.71
50710;BME280;37033;49.994;21.992;2023-10-09T03:15:49;100073.02;;;1.25;79.91
50710;BME280;37033;49.994;21.992;2023-10-09T03:18:21;100064.95;;;1.25;79.97
50710;BME280;37033;49.994;21.992;2023-10-09T03:20:52;100060.16;;;1.25;80.04
50710;BME280;37033;49.994;21.992;2023-10-09T03:23:22;100067.02;;;1.26;80.28
50710;BME280;37033;49.994;21.992;2023-10-09T03:25:53;100065.23;;;1.26;80.20
50710;BME280;37033;49.994;21.992;2023-10-09T03:28:24;100060.67;;;1.27;80.15
50710;BME280;37033;49.994;21.992;2023-10-09T03:30:55;100062.35;;;1.28;80.11
50710;BME280;37033;49.994;21.992;2023-10-09T03:33:29;100070.02;;;1.30;80.35
50710;BME280;37033;49.994;21.992;2023-10-09T03:36:02;100061.34;;;1.31;80.40
50710;BME280;37033;49.994;21.992;2023-10-09T03:38:36;100056.36;;;1.32;80.39
50710;BME280;37033;49.994;21.992;2023-10-09T03:41:08;100048.80;;;1.33;80.40
50710;BME280;37033;49.994;21.992;2023-10-09T03:43:42;100040.83;;;1.34;80.31
50710;BME280;37033;49.994;21.992;2023-10-09T03:46:16;100037.78;;;1.35;80.60
50710;BME280;37033;49.994;21.992;2023-10-09T03:48:52;100037.35;;;1.36;80.75
50710;BME280;37033;49.994;21.992;2023-10-09T03:51:26;100029.55;;;1.36;80.86
50710;BME280;37033;49.994;21.992;2023-10-09T03:53:57;100026.40;;;1.36;80.70
50710;BME280;37033;49.994;21.992;2023-10-09T03:56:28;100018.70;;;1.37;80.81
50710;BME280;37033;49.994;21.992;2023-10-09T03:59:00;100018.64;;;1.40;80.90
50710;BME280;37033;49.994;21.992;2023-10-09T04:01:33;100014.38;;;1.41;81.07
50710;BME280;37033;49.994;21.992;2023-10-09T04:04:08;100005.61;;;1.41;80.87
50710;BME280;37033;49.994;21.992;2023-10-09T04:06:43;100006.73;;;1.40;81.28
50710;BME280;37033;49.994;21.992;2023-10-09T04:09:16;100001.79;;;1.40;81.51
50710;BME280;37033;49.994;21.992;2023-10-09T04:12:05;100000.71;;;1.40;81.63
50710;BME280;37033;49.994;21.992;2023-10-09T04:14:50;100007.59;;;1.41;81.49
50710;BME280;37033;49.994;21.992;2023-10-09T04:17:24;100014.91;;;1.42;81.56
50710;BME280;37033;49.994;21.992;2023-10-09T04:20:09;100018.38;;;1.42;81.80
50710;BME280;37033;49.994;21.992;2023-10-09T04:22:53;100024.12;;;1.42;81.63
50710;BME280;37033;49.994;21.992;2023-10-09T04:25:34;100024.40;;;1.42;81.60
50710;BME280;37033;49.994;21.992;2023-10-09T04:28:12;100023.16;;;1.42;81.96
50710;BME280;37033;49.994;21.992;2023-10-09T04:30:49;100023.23;;;1.43;82.00
50710;BME280;37033;49.994;21.992;2023-10-09T04:33:24;100024.34;;;1.45;81.97
50710;BME280;37033;49.994;21.992;2023-10-09T04:36:10;100018.75;;;1.47;81.83
50710;BME280;37033;49.994;21.992;2023-10-09T04:38:53;100016.80;;;1.48;81.90
50710;BME280;37033;49.994;21.992;2023-10-09T04:41:45;100014.73;;;1.50;82.03
50710;BME280;37033;49.994;21.992;2023-10-09T04:44:23;100013.31;;;1.51;82.04
50710;BME280;37033;49.994;21.992;2023-10-09T04:47:05;100011.61;;;1.51;82.07
50710;BME280;37033;49.994;21.992;2023-10-09T04:49:49;100004.20;;;1.54;82.07
50710;BME280;37033;49.994;21.992;2023-10-09T04:52:31;100001.19;;;1.55;82.30
50710;BME280;37033;49.994;21.992;2023-10-09T04:55:16;99992.17;;;1.56;82.06
50710;BME280;37033;49.994;21.992;2023-10-09T04:57:48;99992.95;;;1.57;82.17
50710;BME280;37033;49.994;21.992;2023-10-09T05:00:38;100006.74;;;1.60;82.08
50710;BME280;37033;49.994;21.992;2023-10-09T05:03:32;100008.27;;;1.63;82.27
50710;BME280;37033;49.994;21.992;2023-10-09T05:06:15;99999.28;;;1.65;82.29
50710;BME280;37033;49.994;21.992;2023-10-09T05:09:02;99992.85;;;1.66;82.47
50710;BME280;37033;49.994;21.992;2023-10-09T05:11:41;99994.08;;;1.68;82.42
50710;BME280;37033;49.994;21.992;2023-10-09T05:14:25;99990.57;;;1.71;82.47
50710;BME280;37033;49.994;21.992;2023-10-09T05:17:08;99990.27;;;1.73;82.30
50710;BME280;37033;49.994;21.992;2023-10-09T05:19:45;99989.25;;;1.76;82.46
50710;BME280;37033;49.994;21.992;2023-10-09T05:22:45;99983.55;;;1.81;82.57
50710;BME280;37033;49.994;21.992;2023-10-09T05:25:27;99990.30;;;1.86;82.65
50710;BME280;37033;49.994;21.992;2023-10-09T05:28:22;99997.13;;;1.91;82.42
50710;BME280;37033;49.994;21.992;2023-10-09T05:31:00;99999.31;;;1.94;82.66
50710;BME280;37033;49.994;21.992;2023-10-09T05:33:38;99997.48;;;1.95;82.67
50710;BME280;37033;49.994;21.992;2023-10-09T05:36:09;100001.64;;;1.96;82.55
50710;BME280;37033;49.994;21.992;2023-10-09T05:39:00;99995.60;;;1.99;82.78
50710;BME280;37033;49.994;21.992;2023-10-09T05:41:46;99983.55;;;2.03;82.87
50710;BME280;37033;49.994;21.992;2023-10-09T05:44:29;99980.30;;;2.08;82.66
50710;BME280;37033;49.994;21.992;2023-10-09T05:47:13;99978.02;;;2.14;82.88
50710;BME280;37033;49.994;21.992;2023-10-09T05:49:58;99976.04;;;2.19;82.98
50710;BME280;37033;49.994;21.992;2023-10-09T05:52:46;99974.02;;;2.25;82.90
50710;BME280;37033;49.994;21.992;2023-10-09T05:55:31;99974.35;;;2.30;82.89
50710;BME280;37033;49.994;21.992;2023-10-09T05:58:16;99975.43;;;2.34;82.99
50710;BME280;37033;49.994;21.992;2023-10-09T06:01:09;99977.41;;;2.41;82.98
50710;BME280;37033;49.994;21.992;2023-10-09T06:03:57;99985.07;;;2.47;83.08
50710;BME280;37033;49.994;21.992;2023-10-09T06:06:44;99991.55;;;2.53;83.34
50710;BME280;37033;49.994;21.992;2023-10-09T06:09:16;99989.34;;;2.59;83.32
50710;BME280;37033;49.994;21.992;2023-10-09T06:12:00;99979.64;;;2.70;84.01
50710;BME280;37033;49.994;21.992;2023-10-09T06:14:45;99977.95;;;2.87;83.96
50710;BME280;37033;49.994;21.992;2023-10-09T06:17:27;99972.30;;;2.90;83.46
50710;BME280;37033;49.994;21.992;2023-10-09T06:20:13;99966.10;;;2.92;83.20
50710;BME280;37033;49.994;21.992;2023-10-09T06:22:56;99962.27;;;2.94;83.09
50710;BME280;37033;49.994;21.992;2023-10-09T06:25:27;99957.81;;;2.98;83.25
50710;BME280;37033;49.994;21.992;2023-10-09T06:28:02;99945.77;;;3.17;83.56
50710;BME280;37033;49.994;21.992;2023-10-09T06:30:35;99935.06;;;3.20;83.36
50710;BME280;37033;49.994;21.992;2023-10-09T06:33:14;99919.41;;;3.20;83.31
50710;BME280;37033;49.994;21.992;2023-10-09T06:35:59;99901.83;;;3.20;83.19
50710;BME280;37033;49.994;21.992;2023-10-09T06:38:37;99897.21;;;3.20;83.44
50710;BME280;37033;49.994;21.992;2023-10-09T06:41:21;99887.39;;;3.21;83.48
50710;BME280;37033;49.994;21.992;2023-10-09T06:44:05;99892.05;;;3.23;83.47
50710;BME280;37033;49.994;21.992;2023-10-09T06:46:47;99899.48;;;3.25;83.53
50710;BME280;37033;49.994;21.992;2023-10-09T06:49:23;99887.60;;;3.28;83.92
50710;BME280;37033;49.994;21.992;2023-10-09T06:52:02;99875.78;;;3.31;84.00
50710;BME280;37033;49.994;21.992;2023-10-09T06:54:44;99869.91;;;3.34;84.02
50710;BME280;37033;49.994;21.992;2023-10-09T06:57:20;99871.79;;;3.38;83.76
50710;BME280;37033;49.994;21.992;2023-10-09T07:00:07;99871.48;;;3.42;84.04
50710;BME280;37033;49.994;21.992;2023-10-09T07:03:00;99870.20;;;3.47;84.20
50710;BME280;37033;49.994;21.992;2023-10-09T07:05:40;99870.02;;;3.51;84.14
50710;BME280;37033;49.994;21.992;2023-10-09T07:08:31;99873.70;;;3.57;84.22
50710;BME280;37033;49.994;21.992;2023-10-09T07:11:08;99873.97;;;3.62;84.12
50710;BME280;37033;49.994;21.992;2023-10-09T07:13:52;99869.23;;;3.68;84.18
50710;BME280;37033;49.994;21.992;2023-10-09T07:16:25;99877.06;;;3.73;84.18
50710;BME280;37033;49.994;21.992;2023-10-09T07:19:07;99876.48;;;3.78;84.08
50710;BME280;37033;49.994;21.992;2023-10-09T07:21:55;99877.34;;;3.86;84.00
50710;BME280;37033;49.994;21.992;2023-10-09T07:24:32;99880.88;;;3.92;83.98
50710;BME280;37033;49.994;21.992;2023-10-09T07:27:12;99875.48;;;3.98;84.08
50710;BME280;37033;49.994;21.992;2023-10-09T07:29:45;99869.59;;;4.04;84.00
50710;BME280;37033;49.994;21.992;2023-10-09T07:32:18;99870.73;;;4.11;83.89
50710;BME280;37033;49.994;21.992;2023-10-09T07:34:50;99866.84;;;4.16;83.90
50710;BME280;37033;49.994;21.992;2023-10-09T07:37:23;99860.39;;;4.21;84.01
50710;BME280;37033;49.994;21.992;2023-10-09T07:39:59;99861.66;;;4.25;83.98
50710;BME280;37033;49.994;21.992;2023-10-09T07:42:36;99858.66;;;4.30;83.98
50710;BME280;37033;49.994;21.992;2023-10-09T07:45:15;99854.02;;;4.36;84.10
50710;BME280;37033;49.994;21.992;2023-10-09T07:47:59;99856.92;;;4.43;84.01
50710;BME280;37033;49.994;21.992;2023-10-09T07:50:43;99859.05;;;4.50;84.15
50710;BME280;37033;49.994;21.992;2023-10-09T07:53:18;99859.83;;;4.59;83.96
50710;BME280;37033;49.994;21.992;2023-10-09T07:55:55;99862.58;;;4.67;84.24
50710;BME280;37033;49.994;21.992;2023-10-09T07:58:33;99849.88;;;4.74;84.11
50710;BME280;37033;49.994;21.992;2023-10-09T08:01:16;99846.80;;;4.81;83.81
50710;BME280;37033;49.994;21.992;2023-10-09T08:03:51;99841.55;;;4.87;83.94
50710;BME280;37033;49.994;21.992;2023-10-09T08:06:31;99846.16;;;4.93;83.99
50710;BME280;37033;49.994;21.992;2023-10-09T08:09:12;99850.63;;;5.01;83.88
50710;BME280;37033;49.994;21.992;2023-10-09T08:12:08;99843.19;;;5.07;83.67
50710;BME280;37033;49.994;21.992;2023-10-09T08:15:07;99845.45;;;5.15;83.47
50710;BME280;37033;49.994;21.992;2023-10-09T08:17:53;99844.52;;;5.22;83.57
50710;BME280;37033;49.994;21.992;2023-10-09T08:20:26;99853.48;;;5.29;83.47
50710;BME280;37033;49.994;21.992;2023-10-09T08:23:06;99845.70;;;5.37;83.20
50710;BME280;37033;49.994;21.992;2023-10-09T08:25:51;99835.08;;;5.44;83.24
50710;BME280;37033;49.994;21.992;2023-10-09T08:28:42;99830.54;;;5.51;83.24
50710;BME280;37033;49.994;21.992;2023-10-09T08:31:14;99835.44;;;5.59;83.12
50710;BME280;37033;49.994;21.992;2023-10-09T08:34:14;99832.62;;;5.67;82.84
50710;BME280;37033;49.994;21.992;2023-10-09T08:36:55;99832.16;;;5.73;82.81
50710;BME280;37033;49.994;21.992;2023-10-09T08:39:26;99835.44;;;5.80;82.73
50710;BME280;37033;49.994;21.992;2023-10-09T08:41:57;99835.25;;;5.86;82.69
50710;BME280;37033;49.994;21.992;2023-10-09T08:44:28;99827.76;;;5.91;82.47
50710;BME280;37033;49.994;21.992;2023-10-09T08:47:02;99823.92;;;5.96;82.46
50710;BME280;37033;49.994;21.992;2023-10-09T08:49:33;99822.98;;;6.02;82.42
50710;BME280;37033;49.994;21.992;2023-10-09T08:52:05;99825.34;;;6.07;82.32
50710;BME280;37033;49.994;21.992;2023-10-09T08:54:36;99828.80;;;6.12;81.80
50710;BME280;37033;49.994;21.992;2023-10-09T08:57:07;99834.55;;;6.16;81.59
50710;BME280;37033;49.994;21.992;2023-10-09T08:59:43;99841.46;;;6.21;81.57
50710;BME280;37033;49.994;21.992;2023-10-09T09:02:14;99839.98;;;6.27;81.26
50710;BME280;37033;49.994;21.992;2023-10-09T09:04:45;99837.73;;;6.34;81.05
50710;BME280;37033;49.994;21.992;2023-10-09T09:07:27;99841.08;;;6.44;81.02
50710;BME280;37033;49.994;21.992;2023-10-09T09:10:00;99838.66;;;6.56;80.89
50710;BME280;37033;49.994;21.992;2023-10-09T09:12:46;99823.02;;;6.69;80.87
50710;BME280;37033;49.994;21.992;2023-10-09T09:15:23;99811.02;;;6.82;79.97
50710;BME280;37033;49.994;21.992;2023-10-09T09:18:05;99805.33;;;6.93;79.51
50710;BME280;37033;49.994;21.992;2023-10-09T09:20:40;99801.85;;;7.05;79.21
50710;BME280;37033;49.994;21.992;2023-10-09T09:23:14;99804.73;;;7.18;78.60
50710;BME280;37033;49.994;21.992;2023-10-09T09:25:47;99793.55;;;7.29;78.33
50710;BME280;37033;49.994;21.992;2023-10-09T09:28:27;99788.25;;;7.40;78.03
50710;BME280;37033;49.994;21.992;2023-10-09T09:31:19;99784.11;;;7.49;77.22
50710;BME280;37033;49.994;21.992;2023-10-09T09:33:59;99776.98;;;7.52;76.49
50710;BME280;37033;49.994;21.992;2023-10-09T09:36:59;99772.20;;;7.53;75.52
50710;BME280;37033;49.994;21.992;2023-10-09T09:39:33;99774.36;;;7.53;75.06
50710;BME280;37033;49.994;21.992;2023-10-09T09:42:05;99774.36;;;7.56;74.53
50710;BME280;37033;49.994;21.992;2023-10-09T09:44:40;99767.60;;;7.62;74.62
50710;BME280;37033;49.994;21.992;2023-10-09T09:47:15;99779.81;;;7.67;74.14
50710;BME280;37033;49.994;21.992;2023-10-09T09:49:53;99777.90;;;7.68;72.81
50710;BME280;37033;49.994;21.992;2023-10-09T09:52:30;99778.44;;;7.68;72.51
50710;BME280;37033;49.994;21.992;2023-10-09T09:55:10;99773.95;;;7.66;72.18
50710;BME280;37033;49.994;21.992;2023-10-09T09:57:49;99762.47;;;7.67;72.09
50710;BME280;37033;49.994;21.992;2023-10-09T10:00:22;99763.00;;;7.70;71.54
50710;BME280;37033;49.994;21.992;2023-10-09T10:03:04;99760.36;;;7.72;71.68
50710;BME280;37033;49.994;21.992;2023-10-09T10:05:37;99761.36;;;7.76;71.84
50710;BME280;37033;49.994;21.992;2023-10-09T10:08:09;99764.92;;;7.80;71.87
50710;BME280;37033;49.994;21.992;2023-10-09T10:10:43;99760.04;;;7.81;71.96
50710;BME280;37033;49.994;21.992;2023-10-09T10:13:55;99753.25;;;7.82;71.77
50710;BME280;37033;49.994;21.992;2023-10-09T10:16:34;99753.34;;;7.78;71.47
50710;BME280;37033;49.994;21.992;2023-10-09T10:19:25;99745.08;;;7.74;71.58
50710;BME280;37033;49.994;21.992;2023-10-09T10:22:26;99744.44;;;7.68;71.42
50710;BME280;37033;49.994;21.992;2023-10-09T10:24:57;99751.14;;;7.66;71.78
50710;BME280;37033;49.994;21.992;2023-10-09T10:27:32;99742.39;;;7.66;71.57
50710;BME280;37033;49.994;21.992;2023-10-09T10:30:29;99742.29;;;7.63;71.27
50710;BME280;37033;49.994;21.992;2023-10-09T10:33:06;99735.34;;;7.63;71.68
50710;BME280;37033;49.994;21.992;2023-10-09T10:35:41;99735.61;;;7.66;71.67
50710;BME280;37033;49.994;21.992;2023-10-09T10:38:26;99732.15;;;7.67;71.61
50710;BME280;37033;49.994;21.992;2023-10-09T10:41:14;99734.96;;;7.73;71.79
50710;BME280;37033;49.994;21.992;2023-10-09T10:43:48;99727.20;;;7.80;71.73
50710;BME280;37033;49.994;21.992;2023-10-09T10:46:28;99729.40;;;7.87;71.71
50710;BME280;37033;49.994;21.992;2023-10-09T10:49:08;99738.17;;;7.93;71.50
50710;BME280;37033;49.994;21.992;2023-10-09T10:51:46;99751.25;;;8.00;71.47
50710;BME280;37033;49.994;21.992;2023-10-09T10:54:25;99760.57;;;8.04;70.83
50710;BME280;37033;49.994;21.992;2023-10-09T10:57:20;99756.63;;;8.09;70.74
50710;BME280;37033;49.994;21.992;2023-10-09T10:59:59;99738.48;;;8.13;71.08
50710;BME280;37033;49.994;21.992;2023-10-09T11:02:54;99729.33;;;8.17;70.42
50710;BME280;37033;49.994;21.992;2023-10-09T11:05:28;99731.15;;;8.18;70.44
50710;BME280;37033;49.994;21.992;2023-10-09T11:08:11;99722.48;;;8.20;70.59
50710;BME280;37033;49.994;21.992;2023-10-09T11:10:42;99718.30;;;8.23;70.90
50710;BME280;37033;49.994;21.992;2023-10-09T11:13:24;99711.77;;;8.26;70.53
50710;BME280;37033;49.994;21.992;2023-10-09T11:16:03;99711.14;;;8.23;70.51
50710;BME280;37033;49.994;21.992;2023-10-09T11:18:53;99712.96;;;8.18;70.69
50710;BME280;37033;49.994;21.992;2023-10-09T11:21:26;99708.48;;;8.16;70.63
50710;BME280;37033;49.994;21.992;2023-10-09T11:24:10;99688.92;;;8.12;71.05
50710;BME280;37033;49.994;21.992;2023-10-09T11:26:53;99688.27;;;8.09;71.18
50710;BME280;37033;49.994;21.992;2023-10-09T11:29:25;99687.92;;;8.04;71.33
50710;BME280;37033;49.994;21.992;2023-10-09T11:32:22;99686.70;;;7.98;71.19
50710;BME280;37033;49.994;21.992;2023-10-09T11:35:10;99691.23;;;7.92;70.97
50710;BME280;37033;49.994;21.992;2023-10-09T11:37:43;99683.45;;;7.86;71.06
50710;BME280;37033;49.994;21.992;2023-10-09T11:40:30;99680.70;;;7.85;71.35
50710;BME280;37033;49.994;21.992;2023-10-09T11:43:19;99671.95;;;7.85;71.47
50710;BME280;37033;49.994;21.992;2023-10-09T11:46:11;99670.32;;;7.86;71.45
50710;BME280;37033;49.994;21.992;2023-10-09T11:49:05;99664.98;;;7.87;71.32
50710;BME280;37033;49.994;21.992;2023-10-09T11:52:08;99664.95;;;7.89;71.30
50710;BME280;37033;49.994;21.992;2023-10-09T11:54:54;99651.39;;;7.91;71.06
50710;BME280;37033;49.994;21.992;2023-10-09T11:57:28;99637.38;;;7.95;70.85
50710;BME280;37033;49.994;21.992;2023-10-09T12:00:04;99628.14;;;8.00;70.72
50710;BME280;37033;49.994;21.992;2023-10-09T12:02:55;99619.55;;;8.08;70.95
50710;BME280;37033;49.994;21.992;2023-10-09T12:05:25;99609.02;;;8.17;70.82
50710;BME280;37033;49.994;21.992;2023-10-09T12:07:57;99599.53;;;8.21;69.87
50710;BME280;37033;49.994;21.992;2023-10-09T12:10:30;99597.29;;;8.20;69.42
50710;BME280;37033;49.994;21.992;2023-10-09T12:13:03;99599.36;;;8.22;69.53
50710;BME280;37033;49.994;21.992;2023-10-09T12:15:34;99594.86;;;8.27;70.02
50710;BME280;37033;49.994;21.992;2023-10-09T12:18:08;99590.24;;;8.35;70.17
50710;BME280;37033;49.994;21.992;2023-10-09T12:20:45;99575.33;;;8.42;69.74
50710;BME280;37033;49.994;21.992;2023-10-09T12:23:22;99570.84;;;8.46;69.79
50710;BME280;37033;49.994;21.992;2023-10-09T12:25:57;99561.27;;;8.50;69.55
50710;BME280;37033;49.994;21.992;2023-10-09T12:28:28;99556.31;;;8.53;69.19
50710;BME280;37033;49.994;21.992;2023-10-09T12:31:00;99555.26;;;8.53;69.08
50710;BME280;37033;49.994;21.992;2023-10-09T12:33:31;99556.15;;;8.57;69.32
50710;BME280;37033;49.994;21.992;2023-10-09T12:36:02;99559.14;;;8.62;69.11
50710;BME280;37033;49.994;21.992;2023-10-09T12:38:33;99569.63;;;8.63;68.65
50710;BME280;37033;49.994;21.992;2023-10-09T12:41:06;99563.95;;;8.61;68.67
50710;BME280;37033;49.994;21.992;2023-10-09T12:43:49;99557.98;;;8.61;68.73
50710;BME280;37033;49.994;21.992;2023-10-09T12:46:21;99547.30;;;8.62;68.55
50710;BME280;37033;49.994;21.992;2023-10-09T12:48:55;99545.83;;;8.59;68.67
50710;BME280;37033;49.994;21.992;2023-10-09T12:51:26;99545.86;;;8.60;68.80
50710;BME280;37033;49.994;21.992;2023-10-09T12:54:14;99541.45;;;8.60;68.74
50710;BME280;37033;49.994;21.992;2023-10-09T12:56:44;99540.85;;;8.56;68.67
50710;BME280;37033;49.994;21.992;2023-10-09T12:59:18;99533.48;;;8.53;68.99
50710;BME280;37033;49.994;21.992;2023-10-09T13:01:50;99533.95;;;8.54;69.40
50710;BME280;37033;49.994;21.992;2023-10-09T13:04:27;99526.05;;;8.54;69.00
50710;BME280;37033;49.994;21.992;2023-10-09T13:07:00;99518.88;;;8.44;68.86
50710;BME280;37033;49.994;21.992;2023-10-09T13:09:34;99515.63;;;8.35;68.96
50710;BME280;37033;49.994;21.992;2023-10-09T13:12:06;99518.23;;;8.24;69.22
50710;BME280;37033;49.994;21.992;2023-10-09T13:14:37;99531.82;;;8.17;69.65
50710;BME280;37033;49.994;21.992;2023-10-09T13:17:08;99540.58;;;8.13;69.75
50710;BME280;37033;49.994;21.992;2023-10-09T13:19:39;99547.77;;;8.06;69.98
50710;BME280;37033;49.994;21.992;2023-10-09T13:22:10;99548.98;;;7.97;70.05
50710;BME280;37033;49.994;21.992;2023-10-09T13:24:43;99547.34;;;7.88;70.19
50710;BME280;37033;49.994;21.992;2023-10-09T13:27:17;99544.66;;;7.82;70.73
50710;BME280;37033;49.994;21.992;2023-10-09T13:29:50;99545.89;;;7.73;70.95
50710;BME280;37033;49.994;21.992;2023-10-09T13:32:21;99545.75;;;7.68;71.21
50710;BME280;37033;49.994;21.992;2023-10-09T13:34:52;99541.27;;;7.66;71.34
50710;BME280;37033;49.994;21.992;2023-10-09T13:37:24;99541.10;;;7.60;71.47
50710;BME280;37033;49.994;21.992;2023-10-09T13:39:56;99543.63;;;7.55;71.92
50710;BME280;37033;49.994;21.992;2023-10-09T13:42:27;99543.60;;;7.53;72.06
50710;BME280;37033;49.994;21.992;2023-10-09T13:44:58;99535.73;;;7.54;72.40
50710;BME280;37033;49.994;21.992;2023-10-09T13:47:34;99536.03;;;7.53;73.03
50710;BME280;37033;49.994;21.992;2023-10-09T13:50:08;99531.70;;;7.51;73.07
50710;BME280;37033;49.994;21.992;2023-10-09T13:52:39;99532.23;;;7.46;73.35
50710;BME280;37033;49.994;21.992;2023-10-09T13:55:11;99531.47;;;7.43;73.76